Latest Weather Observations for Orbost

IDV60801

Issued at 7:31 pm EST Sunday 29 May 2016 (issued every 30 minutes, with the page automatically refreshed every 10 minutes)

About weather observations | Map of weather stations | Latest weather observations for VIC | Other Formats
Station Details ID: 084145 Name: ORBOST Lat: -37.69 Lon: 148.47 Height: 62.65 m
Data from the previous 72 hours. | See also: Recent months at Orbost
Date/Time
EST
Temp
°C
App
Temp
°C
Dew
Point
Rel
Hum
%
Delta-T
°C
Wind Press
QNH
hPa
Press
MSL
hPa
Rain
since 9 am
mm
Dir
 
Spd
km/h
Gust
km/h
Spd
kts
Gust
kts
29/07:30pm 10.8 8.0 5.1 68 2.6 W 9 17 5 9 1020.7 1020.7 0.2
29/07:00pm 11.1 7.9 5.0 66 2.8 WNW 11 15 6 8 1020.3 1020.3 0.2
29/06:30pm 11.1 7.8 4.8 65 2.9 W 11 17 6 9 1019.9 1019.9 0.2
29/06:00pm 11.4 8.1 4.6 63 3.1 W 11 19 6 10 1019.5 1019.5 0.2
29/05:30pm 12.0 7.9 4.5 60 3.4 W 15 22 8 12 1019.1 1019.1 0.2
29/05:00pm 12.3 9.0 4.3 58 3.6 W 11 19 6 10 1018.7 1018.7 0.2
29/04:30pm 13.4 9.7 4.6 55 4.1 W 13 22 7 12 1018.2 1018.2 0.2
29/04:00pm 12.9 8.9 5.1 59 3.6 W 15 22 8 12 1018.1 1018.1 0.2
29/03:30pm 13.3 9.5 5.9 61 3.5 W 15 24 8 13 1017.9 1017.9 0.2
29/03:00pm 13.2 9.2 6.8 65 3.1 W 17 24 9 13 1017.7 1017.7 0.2
29/02:30pm 13.4 9.1 7.2 66 3.0 W 19 32 10 17 1017.5 1017.5 0.2
29/02:00pm 12.8 9.5 7.9 72 2.4 W 15 26 8 14 1017.6 1017.6 0.2
29/01:30pm 11.9 8.3 8.2 78 1.8 WNW 17 26 9 14 1017.6 1017.6 0.2
29/01:00pm 12.6 8.5 7.7 72 2.4 W 19 32 10 17 1017.4 1017.4 0.0
29/12:30pm 12.9 9.1 7.4 69 2.7 W 17 26 9 14 1017.4 1017.4 0.0
29/12:00pm 12.8 8.3 7.0 68 2.8 W 20 30 11 16 1017.5 1017.5 0.0
29/11:30am 13.2 8.3 6.8 65 3.1 W 22 35 12 19 1017.5 1017.5 0.0
29/11:00am 12.9 8.5 6.7 66 3.0 W 19 30 10 16 1017.5 1017.5 0.0
29/10:30am 12.9 8.3 6.7 66 3.0 W 20 30 11 16 1017.5 1017.5 0.0
29/10:00am 11.8 7.3 5.9 67 2.8 WNW 19 33 10 18 1017.3 1017.3 0.0
29/09:30am 11.4 7.7 6.1 70 2.5 WNW 15 26 8 14 1017.1 1017.1 0.0
29/09:00am 11.2 7.1 6.1 71 2.4 WNW 17 33 9 18 1016.8 1016.8 1.4
29/08:30am 10.6 6.4 5.6 71 2.3 WNW 17 28 9 15 1016.5 1016.5 1.4
29/08:00am 10.4 6.6 5.6 72 2.2 WNW 15 24 8 13 1016.2 1016.2 1.4
29/07:30am 10.3 7.3 5.9 74 2.0 WNW 11 19 6 10 1016.1 1016.1 1.4
29/07:00am 10.2 7.2 6.0 75 1.9 WNW 11 22 6 12 1015.8 1015.8 1.4
29/06:30am 10.6 6.4 5.8 72 2.2 WNW 17 30 9 16 1015.4 1015.4 1.4
29/06:00am 10.7 6.1 5.7 71 2.3 WNW 19 30 10 16 1015.1 1015.1 1.4
29/05:30am 10.1 6.6 5.5 73 2.1 WNW 13 22 7 12 1014.8 1014.8 1.4
29/05:00am 10.4 6.2 5.8 73 2.1 WNW 17 28 9 15 1014.6 1014.6 1.4
29/04:30am 10.4 6.2 5.6 72 2.2 WNW 17 28 9 15 1014.4 1014.4 1.4
29/04:00am 9.8 6.7 5.4 74 2.0 WNW 11 17 6 9 1014.2 1014.2 1.4
29/03:30am 9.9 6.0 5.3 73 2.1 WNW 15 22 8 12 1014.0 1014.0 1.4
29/03:00am 10.1 6.7 5.7 74 2.0 WNW 13 22 7 12 1013.9 1013.9 1.4
29/02:30am 10.0 6.1 5.4 73 2.1 WNW 15 24 8 13 1013.8 1013.8 1.4
29/02:00am 9.9 6.0 5.5 74 2.0 WNW 15 22 8 12 1013.7 1013.7 1.4
29/01:30am 10.2 6.4 6.0 75 1.9 WNW 15 26 8 14 1013.6 1013.6 1.4
29/01:00am 10.0 6.3 6.2 77 1.8 WNW 15 20 8 11 1013.4 1013.4 1.4
29/12:30am 10.0 6.3 6.3 78 1.7 WNW 15 26 8 14 1013.5 1013.5 1.4
29/12:00am 9.7 6.0 6.4 80 1.5 WNW 15 26 8 14 1013.4 1013.4 1.4
 
Date/Time
EST
Temp
°C
App
Temp
°C
Dew
Point
Rel
Hum
%
Delta-T
°C
Wind Press
QNH
hPa
Press
MSL
hPa
Rain
since 9 am
mm
Dir
 
Spd
km/h
Gust
km/h
Spd
kts
Gust
kts
28/11:30pm 9.7 6.4 6.2 79 1.6 WNW 13 19 7 10 1013.5 1013.5 1.4
28/11:00pm 9.6 5.9 6.3 80 1.5 WNW 15 22 8 12 1013.4 1013.4 1.4
28/10:30pm 9.7 6.4 6.2 79 1.6 WNW 13 22 7 12 1013.3 1013.3 1.4
28/10:00pm 9.4 5.6 5.9 79 1.6 WNW 15 24 8 13 1013.2 1013.2 1.4
28/09:30pm 9.5 6.5 6.0 79 1.6 WNW 11 19 6 10 1013.2 1013.2 1.4
28/09:00pm 9.1 6.1 5.8 80 1.5 WNW 11 17 6 9 1013.1 1013.1 1.4
28/08:30pm 9.2 6.6 5.9 80 1.5 WNW 9 17 5 9 1012.8 1012.8 1.4
28/08:00pm 9.7 6.7 6.2 79 1.6 WNW 11 17 6 9 1012.7 1012.7 1.4
28/07:30pm 9.8 6.9 6.5 80 1.5 WNW 11 20 6 11 1012.4 1012.4 1.4
28/07:00pm 9.1 6.6 6.7 85 1.1 NW 9 15 5 8 1012.1 1012.1 1.4
28/06:30pm 9.1 6.7 6.9 86 1.0 NW 9 11 5 6 1011.7 1011.7 1.4
28/06:00pm 9.4 7.6 7.8 90 0.8 NW 7 13 4 7 1011.3 1011.3 1.4
28/05:30pm 9.9 7.7 8.0 88 0.9 W 9 17 5 9 1011.0 1011.0 1.4
28/05:00pm 10.4 7.2 8.3 87 1.0 W 15 20 8 11 1010.7 1010.7 0.8
28/04:30pm 10.2 6.1 7.8 85 1.2 WSW 19 33 10 18 1010.2 1010.2 0.6
28/04:00pm 10.9 7.8 8.7 86 1.1 WSW 15 20 8 11 1009.9 1009.9 0.4
28/03:30pm 11.5 9.2 9.1 85 1.2 SSW 11 19 6 10 1009.4 1009.4 0.0
28/03:00pm 13.1 9.9 6.7 65 3.1 WSW 13 19 7 10 1009.0 1009.0 0.0
28/02:30pm 13.0 9.0 6.8 66 3.0 WSW 17 30 9 16 1008.8 1008.8 0.0
28/02:00pm 13.2 9.5 6.5 64 3.2 W 15 24 8 13 1008.4 1008.3 0.0
28/01:30pm 13.2 9.6 6.8 65 3.1 W 15 24 8 13 1008.1 1008.0 0.0
28/01:00pm 13.4 9.9 7.2 66 3.0 W 15 22 8 12 1008.2 1008.1 0.0
28/12:30pm 12.5 8.5 6.8 68 2.7 W 17 30 9 16 1008.2 1008.1 0.0
28/12:00pm 11.9 7.8 6.4 69 2.6 W 17 24 9 13 1008.2 1008.1 0.0
28/11:30am 11.8 7.7 6.3 69 2.6 W 17 26 9 14 1008.4 1008.3 0.0
28/11:00am 11.4 8.0 6.1 70 2.5 W 13 22 7 12 1008.7 1008.6 0.0
28/10:30am 10.4 7.3 5.4 71 2.3 NW 11 15 6 8 1008.8 1008.8 0.0
28/10:00am 9.6 5.9 4.6 71 2.2 NW 13 17 7 9 1008.7 1008.6 0.0
28/09:30am 9.2 5.9 4.4 72 2.1 NW 11 19 6 10 1008.4 1008.3 0.0
28/09:00am 8.7 5.3 4.1 73 2.0 NW 11 17 6 9 1008.4 1008.3 0.0
28/08:30am 8.4 5.3 3.8 73 2.0 NW 9 17 5 9 1008.4 1008.3 0.0
28/08:00am 7.7 3.8 3.4 74 1.8 NNW 13 19 7 10 1008.2 1008.1 0.0
28/07:30am 7.6 3.7 3.5 75 1.8 NNW 13 20 7 11 1008.0 1007.9 0.0
28/07:00am 7.3 3.4 3.5 77 1.6 NNW 13 19 7 10 1007.9 1007.8 0.0
28/06:30am 7.1 3.2 3.3 77 1.6 NNW 13 19 7 10 1007.6 1007.5 0.0
28/06:00am 6.7 3.5 3.3 79 1.4 NNW 9 13 5 7 1007.4 1007.3 0.0
28/05:30am 7.0 3.5 3.6 79 1.4 NNW 11 15 6 8 1007.2 1007.2 0.0
28/05:00am 7.1 3.6 3.7 79 1.5 NNW 11 13 6 7 1007.2 1007.2 0.0
28/04:30am 6.8 3.4 3.8 81 1.3 NNW 11 15 6 8 1007.1 1007.1 0.0
28/04:00am 7.3 4.3 4.1 80 1.4 NNW 9 13 5 7 1007.1 1007.1 0.0
28/03:30am 7.5 4.2 4.6 82 1.3 N 11 15 6 8 1007.1 1007.1 0.0
28/03:00am 6.8 3.9 4.5 85 1.0 NNW 9 15 5 8 1007.2 1007.2 0.0
28/02:30am 7.5 5.0 4.6 82 1.3 NNW 7 11 4 6 1007.4 1007.3 0.0
28/02:00am 7.9 5.1 5.0 82 1.3 NNW 9 11 5 6 1007.4 1007.3 0.0
28/01:30am 7.9 5.4 5.0 82 1.3 NNW 7 11 4 6 1007.2 1007.2 0.0
28/01:00am 9.2 6.5 5.6 78 1.6 NNW 9 15 5 8 1007.5 1007.4 0.0
28/12:30am 9.1 6.4 5.7 79 1.6 NW 9 15 5 8 1007.4 1007.3 0.0
28/12:00am 7.5 5.1 5.1 85 1.1 NNW 7 11 4 6 1007.5 1007.4 0.0
 
Date/Time
EST
Temp
°C
App
Temp
°C
Dew
Point
Rel
Hum
%
Delta-T
°C
Wind Press
QNH
hPa
Press
MSL
hPa
Rain
since 9 am
mm
Dir
 
Spd
km/h
Gust
km/h
Spd
kts
Gust
kts
27/11:30pm 7.9 5.6 5.0 82 1.3 NW 6 9 3 5 1007.6 1007.5 0.0
27/11:00pm 8.8 6.5 5.5 80 1.5 NW 7 11 4 6 1007.6 1007.5 0.0
27/10:30pm 9.0 6.7 5.6 79 1.5 NW 7 13 4 7 1007.7 1007.6 0.0
27/10:00pm 9.3 7.0 5.9 79 1.6 WNW 7 11 4 6 1007.7 1007.6 0.0
27/09:30pm 9.5 6.9 5.9 78 1.7 NW 9 15 5 8 1007.6 1007.5 0.0
27/09:00pm 9.5 6.9 5.9 78 1.7 NW 9 15 5 8 1007.5 1007.4 0.0
27/08:30pm 9.4 6.7 5.8 78 1.7 NW 9 13 5 7 1007.5 1007.4 0.0
27/08:00pm 9.9 7.3 5.9 76 1.9 WNW 9 15 5 8 1007.2 1007.2 0.0
27/07:30pm 10.4 7.9 6.4 76 1.9 WNW 9 15 5 8 1007.1 1007.1 0.0
27/07:00pm 10.7 8.1 6.3 74 2.1 WNW 9 13 5 7 1006.9 1006.9 0.0
27/06:30pm 10.8 8.3 6.4 74 2.1 W 9 15 5 8 1006.7 1006.7 0.0
27/06:00pm 11.1 8.5 6.3 72 2.3 W 9 15 5 8 1006.4 1006.4 0.0
27/05:30pm 11.1 8.1 6.0 71 2.4 W 11 19 6 10 1006.2 1006.2 0.0
27/05:00pm 11.6 7.9 6.1 69 2.6 W 15 28 8 15 1005.6 1005.6 0.0
27/04:30pm 11.7 8.4 6.2 69 2.6 W 13 20 7 11 1005.3 1005.3 0.0
27/04:00pm 12.0 7.5 5.9 66 2.9 W 19 26 10 14 1005.0 1005.0 0.0
27/03:30pm 12.2 7.7 6.0 66 2.9 W 19 32 10 17 1004.5 1004.5 0.0
27/03:00pm 12.4 7.3 6.0 65 3.0 W 22 37 12 20 1004.2 1004.2 0.0
27/02:30pm 12.4 7.3 6.0 65 3.0 W 22 37 12 20 1004.1 1004.1 0.0
27/02:00pm 12.3 7.2 6.1 66 2.9 W 22 41 12 22 1003.9 1003.9 0.0
27/01:30pm 12.4 7.3 6.2 66 2.9 W 22 43 12 23 1003.6 1003.6 0.0
27/01:00pm 12.4 7.0 6.2 66 3.0 W 24 39 13 21 1003.4 1003.4 0.0
27/12:30pm 12.3 6.4 5.9 65 3.0 W 26 43 14 23 1003.5 1003.5 0.0
27/12:00pm 12.2 7.3 6.7 69 2.6 W 22 37 12 20 1003.4 1003.4 0.0
27/11:30am 11.6 6.1 5.9 68 2.7 W 24 41 13 22 1003.7 1003.7 0.0
27/11:00am 11.5 6.0 5.8 68 2.7 W 24 39 13 21 1003.8 1003.8 0.0
27/10:30am 11.3 5.4 5.8 69 2.6 W 26 39 14 21 1003.8 1003.8 0.0
27/10:09am 11.2 4.9 5.9 70 2.5 W 28 48 15 26 1003.9 1003.9 0.0
27/10:00am 11.1 5.6 6.0 71 2.4 W 24 39 13 21 1003.9 1003.9 0.0
27/09:30am 10.8 5.7 6.0 72 2.2 W 22 33 12 18 1003.7 1003.7 0.0
27/09:00am 10.6 5.1 6.0 73 2.2 W 24 37 13 20 1003.6 1003.6 15.4
27/08:30am 10.3 5.6 5.9 74 2.0 W 20 32 11 17 1003.5 1003.5 15.4
27/08:00am 10.1 4.9 5.5 73 2.1 W 22 37 12 20 1003.3 1003.3 15.4
27/07:30am 10.0 4.4 5.4 73 2.1 W 24 33 13 18 1003.1 1003.1 15.4
27/07:00am 10.2 4.2 5.4 72 2.2 WNW 26 41 14 22 1002.8 1002.8 15.4
27/06:30am 10.1 5.3 5.5 73 2.1 W 20 37 11 20 1002.8 1002.8 15.4
27/06:00am 10.3 4.8 5.7 73 2.1 W 24 37 13 20 1002.7 1002.7 15.4
27/05:30am 10.0 4.5 5.8 75 1.9 W 24 39 13 21 1002.6 1002.6 15.4
27/05:00am 10.2 5.6 5.8 74 2.0 W 19 28 10 15 1002.5 1002.5 15.4
27/04:30am 10.2 5.5 6.0 75 1.9 W 20 32 11 17 1002.5 1002.5 15.4
27/04:00am 10.0 5.9 6.2 77 1.8 W 17 28 9 15 1002.4 1002.4 15.4
27/03:30am 10.0 5.3 6.2 77 1.8 W 20 32 11 17 1002.4 1002.4 15.4
27/03:00am 10.1 5.5 6.3 77 1.8 W 20 33 11 18 1002.2 1002.2 15.4
27/02:30am 10.3 5.7 6.5 77 1.8 W 20 32 11 17 1002.4 1002.4 15.4
27/02:00am 10.3 5.9 6.5 77 1.8 W 19 35 10 19 1002.3 1002.3 15.4
27/01:30am 10.3 5.7 6.6 78 1.7 W 20 32 11 17 1002.1 1002.1 15.4
27/01:00am 10.6 6.3 6.9 78 1.8 W 19 32 10 17 1002.1 1002.1 15.4
27/12:30am 10.5 6.5 6.8 78 1.8 WNW 17 26 9 14 1002.2 1002.2 15.4
27/12:00am 10.6 6.3 6.9 78 1.8 WNW 19 28 10 15 1002.2 1002.2 15.4
 
Date/Time
EST
Temp
°C
App
Temp
°C
Dew
Point
Rel
Hum
%
Delta-T
°C
Wind Press
QNH
hPa
Press
MSL
hPa
Rain
since 9 am
mm
Dir
 
Spd
km/h
Gust
km/h
Spd
kts
Gust
kts
26/11:30pm 10.7 6.8 7.0 78 1.8 WNW 17 26 9 14 1002.4 1002.4 15.4
26/11:00pm 10.5 6.6 7.2 80 1.6 WNW 17 30 9 16 1002.3 1002.3 15.4
26/10:30pm 10.3 6.5 7.4 82 1.4 WNW 17 26 9 14 1002.3 1002.3 15.4
26/10:00pm 10.1 7.1 7.7 85 1.2 WNW 13 20 7 11 1002.6 1002.6 15.4
26/09:30pm 9.8 6.5 8.1 89 0.8 WNW 15 26 8 14 1002.6 1002.6 15.2
26/09:00pm 9.7 6.8 8.1 90 0.8 WNW 13 26 7 14 1002.6 1002.6 15.0
26/08:30pm 9.7 6.0 8.1 90 0.8 WNW 17 28 9 15 1002.4 1002.4 14.6
26/08:00pm 9.8 5.8 8.2 90 0.8 W 19 30 10 16 1002.1 1002.1 14.4

Other Formats:

Comma delimited format used in spreadsheet applications
http://www.bom.gov.au/fwo/IDV60801/IDV60801.95918.axf

JavaScript Object Notation format (JSON) in row-major order
http://www.bom.gov.au/fwo/IDV60801/IDV60801.95918.json